AirNav   Pilot Hours Calculator
 
 1175 users online  

77F Winters Municipal Airport
Winters, Texas, USA

GOING TO WINTERS?


FAA INFORMATION EFFECTIVE 09 SEPTEMBER 2021

Location

FAA Identifier: 77F
Lat/Long: 31-56-49.8991N 099-59-09.0602W
31-56.831652N 099-59.151003W
31.9471942,-99.9858501
(estimated)
Elevation: 1871 ft. / 570.3 m (surveyed)
Variation: 08E (1980)
From city: 2 miles SW of WINTERS, TX
Time zone: UTC -5 (UTC -6 during Standard Time)
Zip code: 79567

Airport Operations

Airport use: Open to the public
Control tower: no
ARTCC: FORT WORTH CENTER
FSS: SAN ANGELO FLIGHT SERVICE STATION
NOTAMs facility: SJT (NOTAM-D service available)
Attendance: UNATNDD
Wind indicator: lighted
Segmented circle: yes
Lights: SS-SR
Beacon: white-green (lighted land airport)
Operates sunset to sunrise.

Airport Communications

CTAF: 122.9
ABILENE APPROACH: 127.2 [OPR 1200-0200Z++ MON-FRI; 1800-2300Z++ SUN; CLSD SAT AND HOL, OT CTC FORT WORTH CENTER 133.5 350.35.]
ABILENE DEPARTURE: 127.2 [OPR 1200-0200Z++ MON-FRI; 1800-2300Z++ SUN; CLSD SAT AND HOL, OT CTC FORT WORTH CENTER 133.5 350.35.]

Nearby radio navigation aids

VOR radial/distance  VOR name  Freq  Var
TQAr196/19.3TUSCOLA VOR/DME111.6010E
ABIr181/32.6ABILENE VORTAC113.7010E

Airport Services

Parking: tiedowns

Runway Information

Runway 17/35

Dimensions: 3204 x 50 ft. / 977 x 15 m
Surface: asphalt, in fair condition
Weight bearing capacity: 
Single wheel: 12.0
Runway edge lights: low intensity
RUNWAY 17  RUNWAY 35
Latitude: 31-57.095873N31-56.567430N
Longitude: 099-59.148910W099-59.153095W
Elevation: 1865.5 ft.1871.0 ft.
Traffic pattern: leftleft
Runway heading: 172 magnetic, 180 true352 magnetic, 000 true
Markings: nonprecision, in poor conditionnonprecision, in poor condition
Touchdown point: yes, no lightsyes, no lights
Obstructions: 5 ft. fence, 201 ft. from runway, 148 ft. right of centerline
5 FT FENCE, 0-199 FT DSTC, 148 FT RIGHT.
4 ft. fence, 201 ft. from runway, 180 ft. left and right of centerline
4 FT FENCE 0-199 FT DSTC, 200 FT LEFT.

Airport Ownership and Management from official FAA records

Ownership: Publicly-owned
Owner: CITY OF WINTERS
310 S MAIN
WINTERS, TX 79567
Phone 325-754-4424
Manager: STEVE BALLARD
P.O. BOX 63
WINTERS, TX 79567
Phone 325-365-6333

Airport Operational Statistics

Aircraft based on the field: 7
Single engine airplanes: 7
    
Aircraft operations: avg 40/week *
67% local general aviation
33% transient general aviation
* for 12-month period ending 23 May 2021

Additional Remarks

4 FT PROPERTY LINE FENCE 163-200 FT WEST OF RWY.
PARL TXY FM RAMP SOUTH, GRAVEL WITH POTHOLES, UNUSBL.
FOR CD CTC FORT WORTH ARTCC AT 817-858-7584.

Instrument Procedures

NOTE: All procedures below are presented as PDF files. If you need a reader for these files, you should download the free Adobe Reader.

NOT FOR NAVIGATION. Please procure official charts for flight.
FAA instrument procedures published for use from 09 September 2021 at 0901Z to 07 October 2021 at 0900Z.

 
IAPs - Instrument Approach Procedures
RNAV (GPS) RWY 17   download (159KB)
RNAV (GPS) RWY 35   download (188KB)
NOTE: Special Take-Off Minimums/Departure Procedures apply   download (107KB)

Other nearby airports with instrument procedures:

E30 - Bruce Field Airport (16 nm S)
KDYS - Dyess Air Force Base (29 nm N)
KCOM - Coleman Municipal Airport (30 nm E)
KABI - Abilene Regional Airport (32 nm NE)
KSWW - Avenger Field Airport (40 nm NW)
 
Loc | Ops | Rwys | IFR | FBO | Links
Com | Nav | Svcs | Stats | Notes
Area around 77F (Winters Municipal Airport)
 
Road maps at: MapQuest Bing Google
 
Aerial photo
WARNING: Photo may not be current or correct
Aerial photo of 77F (Winters Municipal Airport)
Taken in December 2004

Do you have a better or more recent aerial photo of Winters Municipal Airport that you would like to share? If so, please send us your photo.

 
Sectional chart

 
Airport distance calculator
Flying to Winters Municipal Airport? Find the distance to fly.

From to 77F

Sunrise and sunset
Times for 21-Sep-2021
 Local
(UTC-5)
 Zulu
(UTC)
Morning civil twilight07:0412:04
Sunrise07:2912:29
Sunset19:3700:37
Evening civil twilight20:0201:02

Current date and time
Zulu (UTC)  21-Sep-2021 13:02:28
Local (UTC-5)  21-Sep-2021 08:02:28
 
METAR
KDYS 
29nm N 
211256Z AUTO 36013KT 10SM SCT140 20/09 A3016 RMK AO2 SLP167 T02020085
KCOM 
30nm E 
211255Z AUTO 36013G21KT 10SM CLR 23/11 A3011 RMK AO2 T02250105
KABI 
32nm NE 
211252Z 01015G28KT 10SM CLR 21/11 A3016 RMK AO2 PK WND 36028/1250 SLP186 T02110106
KSWW 
40nm NW 
211255Z AUTO 01016G25KT 10SM CLR 20/07 A3023 RMK AO2 T01950067
KSJT 
44nm SW 
211251Z 02013G22KT 10SM CLR 23/11 A3011 RMK AO2 SLP170 T02330106
TAF
KDYS 
29nm N 
211200Z 2112/2218 01015G25KT 9999 FEW130 QNH3008INS TEMPO 2112/2115 01025G35KT BKN030 BECMG 2122/2123 03012G18KT 9999 FEW050 QNH3021INS BECMG 2208/2209 36009KT 9999 SKC QNH3033INS BECMG 2214/2215 03010G15KT 9999 SKC QNH3031INS TX27/2120Z TN12/2211Z
KABI 
32nm NE 
211130Z 2112/2212 01012KT P6SM FEW150 SCT250 TEMPO 2112/2116 01012G25KT FM211600 01020G30KT P6SM SCT150 BKN250 FM212300 01010G20KT P6SM FEW150 SCT250 FM220200 VRB05KT P6SM SKC
NOTAMs
Click for the latest NOTAMs
NOTAMs are issued by the DoD/FAA and will open in a separate window not controlled by AirNav.

 

 
 

Would you like to see your business listed on this page?

 If your business provides an interesting product or service to pilots, flight crews, aircraft, or users of the Winters Municipal Airport, you should consider listing it here.  To start the listing process, click on the button below
 
Add a business
 

Other Pages about Winters Municipal Airport

Update a link
 
Copyright © AirNav, LLC. All rights reserved. Privacy Policy  Contact